LFML/MRS METAR and TAF weather

Enter ICAO airport designator
Station Type Date Time Source
LFML METAR 2020/02/20 19:00 UTC NOAA

LFML 201900Z AUTO 13005KT CAVOK 10/07 Q1025


Station Type Date Time Source
LFML Decoded METAR 2020/02/20 19:00 UTC NOAA

Marseille / Marignane, France (LFML) 43-27N 005-14E 36M
Feb 20, 2020 - 02:00 PM EST / 2020.02.20 1900 UTC
Wind: from the SE (130 degrees) at 6 MPH (5 KT):0
Visibility: greater than 7 mile(s):0
Temperature: 50 F (10 C)
Dew Point: 44 F (7 C)
Relative Humidity: 81%
Pressure (altimeter): 30.27 in. Hg (1025 hPa)
ob: LFML 201900Z AUTO 13005KT CAVOK 10/07 Q1025
cycle: 19

Station Type Date Time Source
LFML TAF 2020/02/20 07:06 UTC NOAA

TAF TAF LFML 200702Z 2007/2109 CNL

Example: see airport list